Observations for ALICANTE EL ALTET, Spain (LEAL)

LEAL 192000Z 00000KT CAVOK 21/18 Q1007 NOSIG
LEAL 191930Z 00000KT CAVOK 21/18 Q1007 NOSIG
LEAL 191900Z 00000KT CAVOK 21/18 Q1007 NOSIG
LEAL 191830Z 00000KT 9999 FEW016 21/19 Q1007 NOSIG  
LEAL 191800Z 17004KT 100V240 CAVOK 21/19 Q1007 NOSIG
LEAL 191730Z 18004KT 120V230 9999 FEW020 22/19 Q1007 NOSIG  
LEAL 191700Z 18005KT 130V230 9999 FEW020 22/19 Q1008 NOSIG  
LEAL 191630Z 18006KT 090V260 9999 FEW020 22/19 Q1008 NOSIG  
LEAL 191600Z 18008KT 140V230 9999 FEW020 23/19 Q1008 NOSIG  
LEAL 191530Z 17007KT 090V230 9999 FEW020 24/19 Q1008 NOSIG  
LEAL 191500Z 16007KT 110V250 9999 FEW020 24/18 Q1008 NOSIG  
LEAL 191430Z 18007KT 100V240 9999 FEW020 25/18 Q1008 NOSIG  
LEAL 191400Z 18008KT 130V250 CAVOK 25/17 Q1008 NOSIG
LEAL 191330Z 17008KT 090V230 CAVOK 25/17 Q1009 NOSIG
LEAL 191300Z 17007KT 120V230 CAVOK 25/15 Q1009 NOSIG
LEAL 191230Z 18006KT 120V240 CAVOK 27/13 Q1009 NOSIG
LEAL 191200Z 20006KT 160V250 CAVOK 26/13 Q1010 NOSIG
LEAL 191130Z 20005KT 140V240 CAVOK 26/11 Q1010 NOSIG
LEAL 191100Z 20004KT 130V260 CAVOK 26/11 Q1011 NOSIG
LEAL 191030Z 20005KT 150V250 CAVOK 25/12 Q1011 NOSIG
LEAL 191000Z 22005KT 170V260 CAVOK 24/12 Q1011 NOSIG
LEAL 190930Z 23004KT 170V290 8000 NSC 23/13 Q1012 NOSIG 
LEAL 190900Z 20004KT 160V250 8000 NSC 21/13 Q1012 NOSIG 
LEAL 190830Z 19004KT 140V250 8000 NSC 19/13 Q1012 NOSIG 
LEAL 190800Z VRB02KT CAVOK 17/12 Q1012 NOSIG
LEAL 190730Z 21003KT 190V250 CAVOK 16/11 Q1011 NOSIG
LEAL 190700Z 22003KT CAVOK 14/11 Q1011 NOSIG
LEAL 190630Z 23003KT 190V250 9999 FEW025 13/10 Q1011 NOSIG  
LEAL 190600Z 29004KT 260V330 9999 FEW025 14/10 Q1011 NOSIG  
LEAL 190530Z 29005KT CAVOK 14/10 Q1011 NOSIG
LEAL 190500Z 28005KT 250V310 CAVOK 14/10 Q1011 NOSIG
LEAL 190430Z 24005KT 210V270 CAVOK 13/11 Q1011 NOSIG
LEAL 190400Z 26003KT CAVOK 13/11 Q1011 NOSIG
LEAL 190330Z 25004KT CAVOK 14/11 Q1011 NOSIG
LEAL 190300Z 23005KT 210V280 CAVOK 14/12 Q1011 NOSIG
LEAL 190230Z 28004KT CAVOK 15/12 Q1012 NOSIG
LEAL 190200Z 30001KT CAVOK 15/12 Q1012 NOSIG
LEAL 190130Z 30002KT CAVOK 15/13 Q1012 NOSIG
LEAL 190100Z VRB02KT CAVOK 15/14 Q1013 NOSIG
LEAL 190030Z 34001KT CAVOK 16/14 Q1013 NOSIG
LEAL 190000Z 00000KT CAVOK 17/15 Q1013 NOSIG
LEAL 182330Z 00000KT CAVOK 16/14 Q1013 NOSIG
LEAL 182300Z VRB01KT CAVOK 18/15 Q1013 NOSIG
LEAL 182230Z VRB01KT CAVOK 18/15 Q1013 NOSIG
LEAL 182200Z VRB02KT CAVOK 18/15 Q1014 NOSIG
LEAL 182130Z 00000KT CAVOK 19/15 Q1014 NOSIG
LEAL 182100Z 00000KT CAVOK 20/16 Q1014 NOSIG
LEAL 182030Z VRB02KT CAVOK 21/16 Q1014 NOSIG
LEAL 182000Z 03003KT 350V100 CAVOK 21/16 Q1014 NOSIG
LEAL 181930Z 00000KT CAVOK 21/17 Q1014 NOSIG